createdAt,value
2023-03-06T00:02:32.000Z,506.00
2023-03-06T00:06:31.948Z,505.00
2023-03-06T00:10:31.967Z,507.00
2023-03-06T00:14:31.866Z,507.00
2023-03-06T00:18:31.836Z,503.00
2023-03-06T00:22:31.913Z,500.00
2023-03-06T00:26:32.149Z,504.00
2023-03-06T00:30:32.348Z,504.00
2023-03-06T00:34:32.563Z,505.00
2023-03-06T00:38:32.716Z,500.00
2023-03-06T00:42:32.915Z,505.00
2023-03-06T00:46:33.043Z,507.00
2023-03-06T00:50:33.235Z,506.00
2023-03-06T00:54:33.401Z,504.00
2023-03-06T00:58:33.564Z,506.00
2023-03-06T01:02:33.734Z,509.00
2023-03-06T01:06:33.781Z,502.00
2023-03-06T01:10:33.837Z,504.00
2023-03-06T01:14:33.977Z,508.00
2023-03-06T01:18:34.138Z,502.00
2023-03-06T01:22:34.169Z,506.00
2023-03-06T01:26:34.326Z,504.00
2023-03-06T01:30:34.400Z,501.00
2023-03-06T01:34:34.461Z,511.00
2023-03-06T01:38:34.577Z,507.00
2023-03-06T01:42:34.627Z,503.00
2023-03-06T01:46:34.705Z,503.00
2023-03-06T01:50:34.736Z,503.00
2023-03-06T01:54:34.810Z,500.00
2023-03-06T01:58:34.865Z,509.00
2023-03-06T02:02:34.980Z,509.00
2023-03-06T02:06:34.972Z,509.00
2023-03-06T02:10:35.011Z,507.00
2023-03-06T02:14:35.078Z,510.00
2023-03-06T02:18:35.096Z,510.00
2023-03-06T02:22:35.122Z,509.00
2023-03-06T02:26:35.090Z,504.00
2023-03-06T02:30:35.199Z,504.00
2023-03-06T02:34:35.171Z,507.00
2023-03-06T02:38:35.194Z,502.00
2023-03-06T02:42:35.272Z,507.00
2023-03-06T02:46:35.311Z,507.00
2023-03-06T02:50:35.280Z,506.00
2023-03-06T02:54:35.318Z,501.00
2023-03-06T02:58:35.348Z,505.00
2023-03-06T03:02:35.348Z,508.00
2023-03-06T03:06:35.345Z,508.00
2023-03-06T03:10:35.343Z,505.00
2023-03-06T03:14:35.383Z,506.00
2023-03-06T03:18:35.468Z,502.00
2023-03-06T03:22:35.460Z,508.00
2023-03-06T03:26:35.522Z,506.00
2023-03-06T03:30:35.600Z,509.00
2023-03-06T03:34:35.650Z,510.00
2023-03-06T03:38:35.651Z,507.00
2023-03-06T03:42:35.716Z,505.00
2023-03-06T03:46:35.771Z,504.00
2023-03-06T03:50:35.747Z,506.00
2023-03-06T03:54:35.727Z,500.00
2023-03-06T03:58:35.738Z,506.00
2023-03-06T04:02:35.678Z,501.00
2023-03-06T04:06:35.693Z,509.00
2023-03-06T04:10:35.694Z,511.00
2023-03-06T04:14:35.736Z,503.00
2023-03-06T04:18:35.729Z,502.00
2023-03-06T04:22:35.754Z,505.00
2023-03-06T04:26:35.768Z,505.00
2023-03-06T04:30:35.845Z,503.00
2023-03-06T04:34:35.827Z,508.00
2023-03-06T04:38:35.926Z,504.00
2023-03-06T04:42:35.932Z,501.00
2023-03-06T04:46:35.952Z,506.00
2023-03-06T04:50:35.938Z,503.00
2023-03-06T04:54:35.920Z,507.00
2023-03-06T04:58:35.938Z,503.00
2023-03-06T05:02:35.917Z,506.00
2023-03-06T05:06:35.920Z,498.00
2023-03-06T05:10:35.948Z,541.00
2023-03-06T05:14:36.041Z,511.00
2023-03-06T05:18:36.078Z,500.00
2023-03-06T05:22:36.118Z,507.00
2023-03-06T05:26:36.186Z,512.00
2023-03-06T05:30:36.213Z,505.00
2023-03-06T05:34:36.237Z,531.00
2023-03-06T05:38:36.190Z,533.00
2023-03-06T05:42:36.180Z,538.00
2023-03-06T05:46:36.188Z,533.00
2023-03-06T05:50:36.136Z,540.00
2023-03-06T05:54:36.114Z,540.00
2023-03-06T05:58:36.117Z,546.00
2023-03-06T06:02:36.140Z,546.00
2023-03-06T06:06:36.110Z,548.00
2023-03-06T06:10:36.034Z,563.00
2023-03-06T06:14:36.048Z,591.00
2023-03-06T06:18:36.048Z,612.00
2023-03-06T06:22:35.990Z,642.00
2023-03-06T06:26:36.104Z,640.00
2023-03-06T06:30:36.148Z,641.00
2023-03-06T06:34:36.160Z,606.00
2023-03-06T06:38:36.675Z,606.00
2023-03-06T06:42:39.884Z,603.00
2023-03-06T06:50:37.191Z,608.00
2023-03-06T06:54:36.404Z,588.00
2023-03-06T06:58:36.548Z,591.00
2023-03-06T07:02:36.532Z,587.00
2023-03-06T07:06:36.483Z,583.00
2023-03-06T07:10:36.448Z,586.00
2023-03-06T07:14:36.628Z,583.00
2023-03-06T07:18:36.405Z,597.00
2023-03-06T07:22:49.951Z,596.00
2023-03-06T07:26:37.640Z,605.00
2023-03-06T07:30:36.224Z,615.00
2023-03-06T07:34:36.293Z,628.00
2023-03-06T07:38:36.412Z,660.00
2023-03-06T07:42:36.488Z,763.00
2023-03-06T07:46:36.600Z,714.00
2023-03-06T07:50:37.123Z,750.00
2023-03-06T07:54:37.171Z,661.00
2023-03-06T07:58:36.906Z,635.00
2023-03-06T08:02:37.180Z,798.00
2023-03-06T08:06:37.095Z,658.00
2023-03-06T08:10:37.165Z,926.00
2023-03-06T08:14:37.207Z,753.00
2023-03-06T08:18:37.272Z,757.00
2023-03-06T08:22:37.660Z,824.00
2023-03-06T08:26:37.354Z,835.00
2023-03-06T08:30:37.385Z,1034.00
2023-03-06T08:34:37.520Z,664.00
2023-03-06T08:38:37.600Z,715.00
2023-03-06T08:42:38.151Z,690.00
2023-03-06T08:46:38.254Z,695.00
2023-03-06T08:50:38.155Z,660.00
2023-03-06T08:54:38.184Z,650.00
2023-03-06T08:58:38.211Z,640.00
2023-03-06T09:02:38.264Z,614.00
2023-03-06T09:06:38.254Z,610.00
2023-03-06T09:10:38.355Z,602.00
2023-03-06T09:14:38.308Z,587.00
2023-03-06T09:18:38.386Z,599.00
2023-03-06T09:22:38.426Z,582.00
2023-03-06T09:26:47.666Z,571.00
2023-03-06T09:30:39.410Z,506.00
2023-03-06T09:34:38.377Z,500.00
2023-03-06T09:38:38.394Z,598.00
2023-03-06T09:42:38.504Z,576.00
2023-03-06T09:46:38.686Z,568.00
2023-03-06T09:50:38.711Z,602.00
2023-03-06T09:54:38.863Z,606.00
2023-03-06T09:58:39.147Z,626.00
2023-03-06T10:02:38.935Z,635.00
2023-03-06T10:06:38.770Z,634.00
2023-03-06T10:10:39.159Z,651.00
2023-03-06T10:14:39.179Z,659.00
2023-03-06T10:18:38.651Z,648.00
2023-03-06T10:22:38.701Z,650.00
2023-03-06T10:26:38.722Z,681.00
2023-03-06T10:30:38.636Z,660.00
2023-03-06T10:34:38.517Z,705.00
2023-03-06T10:38:38.515Z,722.00
2023-03-06T10:42:38.666Z,745.00
2023-03-06T10:46:38.565Z,929.00
2023-03-06T10:50:38.358Z,809.00
2023-03-06T10:54:38.346Z,798.00
2023-03-06T10:58:38.310Z,938.00
2023-03-06T11:02:38.246Z,895.00
2023-03-06T11:06:38.215Z,913.00
2023-03-06T11:10:46.278Z,932.00
2023-03-06T11:14:38.225Z,920.00
2023-03-06T11:18:38.182Z,909.00
2023-03-06T11:22:38.726Z,815.00
2023-03-06T11:26:39.446Z,856.00
2023-03-06T11:30:38.267Z,922.00
2023-03-06T11:34:38.359Z,885.00
2023-03-06T11:38:38.319Z,906.00
2023-03-06T11:42:38.236Z,901.00
2023-03-06T11:46:38.793Z,896.00
2023-03-06T11:50:38.159Z,826.00
2023-03-06T11:54:38.093Z,899.00
2023-03-06T11:58:38.244Z,860.00
2023-03-06T12:02:38.025Z,904.00
2023-03-06T12:06:38.256Z,806.00
2023-03-06T12:10:37.974Z,852.00
2023-03-06T12:14:37.936Z,851.00
2023-03-06T12:18:38.237Z,812.00
2023-03-06T12:22:38.734Z,805.00
2023-03-06T12:26:38.190Z,806.00
2023-03-06T12:30:38.169Z,855.00
2023-03-06T12:34:38.140Z,838.00
2023-03-06T12:38:38.071Z,848.00
2023-03-06T12:42:38.308Z,847.00
2023-03-06T12:46:38.036Z,819.00
2023-03-06T12:50:38.093Z,793.00
2023-03-06T12:54:37.964Z,781.00
2023-03-06T12:58:37.899Z,740.00
2023-03-06T13:02:37.941Z,790.00
2023-03-06T13:06:44.957Z,778.00
2023-03-06T13:10:38.799Z,780.00
2023-03-06T13:14:42.356Z,822.00
2023-03-06T13:18:38.705Z,867.00
2023-03-06T13:22:37.755Z,870.00
2023-03-06T13:26:38.044Z,852.00
2023-03-06T13:30:38.276Z,859.00
2023-03-06T13:34:38.211Z,884.00
2023-03-06T13:38:38.192Z,918.00
2023-03-06T13:42:38.141Z,733.00
2023-03-06T13:46:38.117Z,764.00
2023-03-06T13:50:38.045Z,960.00
2023-03-06T13:54:37.982Z,930.00
2023-03-06T13:58:37.887Z,913.00
2023-03-06T14:02:37.933Z,812.00
2023-03-06T14:06:37.866Z,780.00
2023-03-06T14:10:37.836Z,816.00
2023-03-06T14:14:37.797Z,810.00
2023-03-06T14:18:37.725Z,846.00
2023-03-06T14:22:37.707Z,808.00
2023-03-06T14:26:37.717Z,778.00
2023-03-06T14:30:37.679Z,788.00
2023-03-06T14:34:37.628Z,747.00
2023-03-06T14:38:37.608Z,811.00
2023-03-06T14:42:37.804Z,789.00
2023-03-06T14:46:37.834Z,832.00
2023-03-06T14:50:37.452Z,879.00
2023-03-06T14:54:37.376Z,855.00
2023-03-06T14:58:37.400Z,869.00
2023-03-06T15:02:37.417Z,818.00
2023-03-06T15:06:37.306Z,770.00
2023-03-06T15:10:37.408Z,880.00
2023-03-06T15:14:37.589Z,836.00
2023-03-06T15:18:37.555Z,824.00
2023-03-06T15:22:37.564Z,702.00
2023-03-06T15:26:37.482Z,753.00
2023-03-06T15:30:37.446Z,781.00
2023-03-06T15:34:37.910Z,827.00
2023-03-06T15:38:37.342Z,848.00
2023-03-06T15:42:37.339Z,812.00
2023-03-06T15:46:37.321Z,814.00
2023-03-06T15:50:37.354Z,772.00
2023-03-06T15:54:37.264Z,772.00
2023-03-06T15:58:37.280Z,750.00
2023-03-06T16:02:37.253Z,728.00
2023-03-06T16:06:43.820Z,722.00
2023-03-06T16:10:37.205Z,743.00
2023-03-06T16:14:37.127Z,706.00
2023-03-06T16:18:37.099Z,720.00
2023-03-06T16:22:37.071Z,680.00
2023-03-06T16:26:36.981Z,686.00
2023-03-06T16:30:37.027Z,766.00
2023-03-06T16:34:37.111Z,724.00
2023-03-06T16:38:37.356Z,728.00
2023-03-06T16:42:37.469Z,780.00
2023-03-06T16:46:37.656Z,748.00
2023-03-06T16:50:37.670Z,768.00
2023-03-06T16:54:37.766Z,795.00
2023-03-06T16:58:37.679Z,758.00
2023-03-06T17:02:37.735Z,775.00
2023-03-06T17:06:37.664Z,752.00
2023-03-06T17:10:37.667Z,760.00
2023-03-06T17:14:37.664Z,756.00
2023-03-06T17:18:37.616Z,737.00
2023-03-06T17:22:37.575Z,745.00
2023-03-06T17:26:37.570Z,756.00
2023-03-06T17:30:37.594Z,749.00
2023-03-06T17:34:37.621Z,728.00
2023-03-06T17:38:37.603Z,761.00
2023-03-06T17:42:37.608Z,730.00
2023-03-06T17:46:37.706Z,726.00
2023-03-06T17:50:37.673Z,741.00
2023-03-06T17:54:37.690Z,737.00
2023-03-06T17:58:37.730Z,752.00
2023-03-06T18:02:37.784Z,747.00
2023-03-06T18:06:37.789Z,755.00
2023-03-06T18:10:37.860Z,776.00
2023-03-06T18:14:37.900Z,798.00
2023-03-06T18:18:37.948Z,858.00
2023-03-06T18:22:37.977Z,937.00
2023-03-06T18:26:38.033Z,994.00
2023-03-06T18:30:38.159Z,1058.00
2023-03-06T18:34:38.186Z,1089.00
2023-03-06T18:38:38.190Z,1150.00
2023-03-06T18:42:38.289Z,1218.00
2023-03-06T18:46:38.430Z,1127.00
2023-03-06T18:50:38.497Z,1120.00
2023-03-06T18:54:38.571Z,1235.00
2023-03-06T18:58:38.633Z,1066.00
2023-03-06T19:02:38.740Z,1204.00
2023-03-06T19:06:38.831Z,1176.00
2023-03-06T19:10:38.879Z,1128.00
2023-03-06T19:14:38.920Z,1108.00
2023-03-06T19:18:38.995Z,1136.00
2023-03-06T19:22:39.082Z,1136.00
2023-03-06T19:26:39.135Z,1131.00
2023-03-06T19:30:39.254Z,1117.00
2023-03-06T19:34:39.389Z,1114.00
2023-03-06T19:38:39.476Z,1221.00
2023-03-06T19:42:39.650Z,1261.00
2023-03-06T19:46:39.767Z,1267.00
2023-03-06T19:50:39.885Z,1264.00
2023-03-06T19:54:40.086Z,1268.00
2023-03-06T19:58:40.195Z,1259.00
2023-03-06T20:02:40.282Z,1252.00
2023-03-06T20:06:40.419Z,1235.00
2023-03-06T20:10:40.575Z,1230.00
2023-03-06T20:14:40.773Z,1217.00
2023-03-06T20:18:40.855Z,1200.00
2023-03-06T20:22:41.025Z,1173.00
2023-03-06T20:26:41.292Z,1156.00
2023-03-06T20:30:41.285Z,1136.00
2023-03-06T20:34:41.408Z,1106.00
2023-03-06T20:38:41.541Z,1091.00
2023-03-06T20:42:41.699Z,1056.00
2023-03-06T20:46:42.006Z,1046.00
2023-03-06T20:50:41.972Z,1020.00
2023-03-06T20:54:42.065Z,1012.00
2023-03-06T20:58:42.213Z,975.00
2023-03-06T21:02:42.362Z,956.00
2023-03-06T21:06:42.485Z,928.00
2023-03-06T21:10:42.654Z,908.00
2023-03-06T21:14:42.815Z,903.00
2023-03-06T21:18:42.960Z,872.00
2023-03-06T21:22:43.075Z,847.00
2023-03-06T21:26:43.242Z,823.00
2023-03-06T21:30:43.379Z,819.00
2023-03-06T21:34:43.588Z,800.00
2023-03-06T21:38:43.732Z,781.00
2023-03-06T21:42:43.832Z,764.00
2023-03-06T21:46:43.980Z,745.00
2023-03-06T21:50:44.128Z,733.00
2023-03-06T21:54:44.322Z,714.00
2023-03-06T21:58:44.500Z,699.00
2023-03-06T22:02:44.690Z,677.00
2023-03-06T22:06:44.807Z,671.00
2023-03-06T22:10:46.956Z,663.00
2023-03-06T22:14:44.987Z,657.00
2023-03-06T22:18:44.885Z,654.00
2023-03-06T22:22:44.853Z,653.00
2023-03-06T22:26:44.842Z,645.00
2023-03-06T22:30:44.810Z,645.00
2023-03-06T22:34:44.736Z,635.00
2023-03-06T22:38:44.726Z,636.00
2023-03-06T22:42:44.690Z,637.00
2023-03-06T22:46:44.663Z,631.00
2023-03-06T22:50:44.588Z,627.00
2023-03-06T22:54:44.578Z,624.00
2023-03-06T22:58:44.794Z,622.00
2023-03-06T23:02:44.884Z,622.00
2023-03-06T23:06:45.537Z,619.00
2023-03-06T23:10:45.237Z,621.00
2023-03-06T23:14:45.445Z,613.00
2023-03-06T23:18:45.609Z,617.00
2023-03-06T23:22:45.983Z,608.00
2023-03-06T23:26:45.960Z,611.00
2023-03-06T23:30:46.165Z,610.00
2023-03-06T23:34:46.442Z,607.00
2023-03-06T23:38:46.567Z,609.00
2023-03-06T23:42:46.734Z,605.00
2023-03-06T23:46:46.935Z,601.00
2023-03-06T23:50:47.147Z,602.00
2023-03-06T23:54:47.295Z,602.00
2023-03-06T23:58:47.517Z,607.00
